Time;durP1;ratioP1;P1;durP2;ratioP2;P2;SDS_P1;SDS_P2;PMS_P1;PMS_P2;Temp;Humidity;BMP_temperature;BMP_pressure;BME280_temperature;BME280_humidity;BME280_pressure;Samples;Min_cycle;Max_cycle;Signal;HPM_P1;HPM_P2
2022/10/20 00:00:11;;;;;;;9.37;8.60;;;14.30;99.90;;;;;;5047534;28;20205;-89
2022/10/20 00:02:36;;;;;;;9.07;8.20;;;14.30;99.90;;;;;;5042645;28;20243;-87
2022/10/20 00:05:03;;;;;;;9.40;8.47;;;14.40;99.90;;;;;;5050786;28;20182;-87
2022/10/20 00:07:29;;;;;;;9.87;8.87;;;14.50;99.90;;;;;;5055562;28;20177;-88
2022/10/20 00:09:54;;;;;;;10.50;8.97;;;14.50;99.90;;;;;;5062084;28;20181;-88
2022/10/20 00:12:20;;;;;;;11.47;9.10;;;14.60;99.90;;;;;;5056207;28;20473;-86
2022/10/20 00:14:46;;;;;;;10.07;9.13;;;14.50;99.90;;;;;;5026824;28;20224;-86
2022/10/20 00:17:11;;;;;;;10.20;9.20;;;14.50;99.90;;;;;;5043865;28;20231;-87
2022/10/20 00:19:37;;;;;;;10.07;8.93;;;14.40;99.90;;;;;;5046820;28;20185;-88
2022/10/20 00:22:02;;;;;;;10.10;9.20;;;14.40;99.90;;;;;;5050273;28;20212;-87
2022/10/20 00:24:28;;;;;;;10.83;9.37;;;14.20;99.90;;;;;;5050280;28;20211;-87
2022/10/20 00:26:54;;;;;;;11.70;9.30;;;14.20;99.90;;;;;;5043525;28;20189;-87
2022/10/20 00:29:20;;;;;;;10.70;8.80;;;14.20;99.90;;;;;;5047179;28;20200;-87
2022/10/20 00:31:45;;;;;;;9.80;8.80;;;14.20;99.90;;;;;;5054707;28;20275;-88
2022/10/20 00:34:11;;;;;;;9.57;8.70;;;14.20;99.90;;;;;;5056972;28;20282;-87
2022/10/20 00:36:38;;;;;;;10.17;9.17;;;14.30;99.90;;;;;;5053817;28;20251;-87
2022/10/20 00:39:05;;;;;;;10.50;9.50;;;14.30;99.90;;;;;;5043496;28;20195;-87
2022/10/20 00:41:31;;;;;;;9.80;8.90;;;14.30;99.90;;;;;;5042803;28;20200;-87
2022/10/20 00:43:58;;;;;;;10.73;8.63;;;14.30;99.90;;;;;;5045759;28;20292;-87
2022/10/20 00:46:40;;;;;;;10.40;9.40;;;14.30;99.90;;;;;;5040987;28;20608;-88
2022/10/20 00:49:16;;;;;;;9.63;8.80;;;14.40;99.90;;;;;;5047369;28;20197;-87
2022/10/20 00:51:42;;;;;;;10.27;8.87;;;14.40;99.90;;;;;;5044702;28;20245;-88
2022/10/20 00:54:12;;;;;;;9.53;8.77;;;14.40;99.90;;;;;;5054528;28;20883;-87
2022/10/20 00:56:41;;;;;;;10.17;9.33;;;14.50;99.90;;;;;;5042370;28;20181;-87
2022/10/20 00:59:08;;;;;;;10.20;9.27;;;14.50;99.90;;;;;;5054241;28;20226;-88
2022/10/20 01:01:34;;;;;;;9.90;9.00;;;14.50;99.90;;;;;;5043474;28;20173;-87
2022/10/20 01:04:01;;;;;;;9.23;8.33;;;14.40;99.90;;;;;;5046366;28;20223;-87
2022/10/20 01:06:27;;;;;;;9.20;8.40;;;14.50;99.90;;;;;;5042731;28;20201;-87
2022/10/20 01:08:53;;;;;;;9.93;9.03;;;14.50;99.90;;;;;;5046538;28;20363;-87
2022/10/20 01:11:34;;;;;;;9.37;8.57;;;14.50;99.90;;;;;;5053418;28;20214;-87
2022/10/20 01:14:05;;;;;;;9.83;8.90;;;14.50;99.90;;;;;;5053515;28;20263;-87
2022/10/20 01:16:42;;;;;;;9.93;8.47;;;14.40;99.90;;;;;;5056293;28;20332;-87
2022/10/20 01:19:45;;;;;;;9.13;8.27;;;14.50;99.90;;;;;;5048610;28;20181;-87
2022/10/20 01:22:42;;;;;;;9.77;8.80;;;14.50;99.90;;;;;;5015031;28;20220;-87
2022/10/20 01:25:16;;;;;;;9.37;8.47;;;14.40;99.90;;;;;;5043959;28;20213;-87
2022/10/20 01:27:51;;;;;;;9.87;8.07;;;14.40;99.90;;;;;;5050902;28;20216;-87
2022/10/20 01:30:20;;;;;;;10.40;8.60;;;14.40;99.90;;;;;;5053243;28;20192;-87
2022/10/20 01:33:00;;;;;;;9.30;8.47;;;14.40;99.90;;;;;;5054467;28;20208;-87
2022/10/20 01:35:51;;;;;;;11.30;9.13;;;14.40;99.90;;;;;;5050103;28;20271;-87
2022/10/20 01:38:37;;;;;;;9.90;8.57;;;14.40;99.90;;;;;;5049809;28;20181;-87
2022/10/20 01:41:26;;;;;;;11.27;8.90;;;14.30;99.90;;;;;;5042311;28;20187;-88
2022/10/20 01:43:52;;;;;;;9.43;8.53;;;14.20;99.90;;;;;;5046359;28;20220;-88
2022/10/20 01:46:22;;;;;;;9.40;8.50;;;14.10;99.90;;;;;;5044029;28;20194;-87
2022/10/20 01:48:49;;;;;;;9.07;8.27;;;14.00;99.90;;;;;;5063338;28;20209;-87
2022/10/20 01:51:15;;;;;;;10.10;9.17;;;14.00;99.90;;;;;;5049332;28;20223;-87
2022/10/20 01:53:40;;;;;;;9.70;8.90;;;14.10;99.90;;;;;;5051568;28;20219;-88
2022/10/20 01:56:16;;;;;;;8.40;7.60;;;14.10;99.90;;;;;;5046342;28;20737;-87
2022/10/20 01:58:58;;;;;;;9.83;8.37;;;14.10;99.90;;;;;;5046251;28;20190;-88
2022/10/20 02:01:33;;;;;;;9.47;8.57;;;14.10;99.90;;;;;;5048569;28;20259;-87
2022/10/20 02:04:01;;;;;;;9.57;8.77;;;14.10;99.90;;;;;;5049048;28;20269;-87
2022/10/20 02:06:38;;;;;;;9.27;8.47;;;14.10;99.90;;;;;;5048457;28;20192;-88
2022/10/20 02:09:07;;;;;;;10.30;9.10;;;14.00;99.90;;;;;;5057368;28;20173;-87
2022/10/20 02:11:39;;;;;;;11.60;9.80;;;14.00;99.90;;;;;;5060874;28;20199;-87
2022/10/20 02:14:06;;;;;;;9.87;8.97;;;14.00;99.90;;;;;;5048186;28;20702;-87
2022/10/20 02:16:36;;;;;;;9.93;8.83;;;14.00;99.90;;;;;;5045156;28;20201;-87
2022/10/20 02:19:06;;;;;;;13.03;8.93;;;13.90;99.90;;;;;;5046525;28;20196;-88
2022/10/20 02:21:32;;;;;;;10.20;9.13;;;14.00;99.90;;;;;;5046249;28;20181;-89
2022/10/20 02:24:02;;;;;;;8.30;7.30;;;14.00;99.90;;;;;;5046992;28;20231;-88
2022/10/20 02:26:31;;;;;;;9.73;8.83;;;14.10;99.90;;;;;;5046204;28;20172;-88
2022/10/20 02:29:02;;;;;;;9.40;8.60;;;14.10;99.90;;;;;;5046470;28;20274;-87
2022/10/20 02:31:28;;;;;;;10.07;8.57;;;14.10;99.90;;;;;;5045055;28;20207;-89
2022/10/20 02:33:56;;;;;;;8.97;8.17;;;14.10;99.90;;;;;;5045566;28;20222;-88
2022/10/20 02:36:28;;;;;;;8.70;7.83;;;14.10;99.90;;;;;;5044564;28;20188;-88
2022/10/20 02:38:53;;;;;;;10.03;9.03;;;14.20;99.90;;;;;;5046568;28;20170;-87
2022/10/20 02:41:19;;;;;;;9.20;8.40;;;14.20;99.90;;;;;;5045446;28;20201;-87
2022/10/20 02:43:45;;;;;;;9.00;8.10;;;14.30;99.90;;;;;;5044893;28;20298;-87
2022/10/20 02:46:10;;;;;;;8.90;8.07;;;14.30;99.90;;;;;;5045947;28;20212;-88
2022/10/20 02:48:37;;;;;;;10.77;9.37;;;14.30;99.90;;;;;;5044345;28;20257;-87
2022/10/20 02:51:05;;;;;;;9.37;8.50;;;14.30;99.90;;;;;;5045675;28;20177;-88
2022/10/20 02:53:31;;;;;;;9.60;8.80;;;14.30;99.90;;;;;;5045996;28;20211;-89
2022/10/20 02:55:57;;;;;;;10.47;8.20;;;14.20;99.90;;;;;;5045596;28;20225;-87
2022/10/20 02:58:23;;;;;;;8.17;7.47;;;14.20;99.90;;;;;;5045849;28;20219;-88
2022/10/20 03:00:49;;;;;;;8.80;8.00;;;14.30;99.90;;;;;;5046146;28;20182;-88
2022/10/20 03:03:16;;;;;;;9.97;8.50;;;14.40;99.90;;;;;;5044062;28;20213;-88
2022/10/20 03:05:43;;;;;;;9.70;8.67;;;14.30;99.90;;;;;;5045907;28;20216;-90
2022/10/20 03:08:10;;;;;;;10.03;8.50;;;14.30;99.90;;;;;;5045706;28;20237;-88
2022/10/20 03:10:37;;;;;;;9.07;8.27;;;14.30;99.90;;;;;;5045930;28;20259;-88
2022/10/20 03:13:04;;;;;;;9.70;8.83;;;14.30;99.90;;;;;;5046141;28;20700;-89
2022/10/20 03:15:31;;;;;;;10.50;9.50;;;14.20;99.90;;;;;;5045544;28;20192;-88
2022/10/20 03:17:57;;;;;;;9.40;8.50;;;14.20;99.90;;;;;;5044683;28;20178;-87
2022/10/20 03:20:22;;;;;;;9.23;8.37;;;14.10;99.90;;;;;;5044295;28;20248;-89
2022/10/20 03:22:48;;;;;;;9.03;8.23;;;14.00;99.90;;;;;;5045417;28;20645;-90
2022/10/20 03:25:14;;;;;;;9.90;8.90;;;14.10;99.90;;;;;;5044180;28;20204;-88
2022/10/20 03:27:39;;;;;;;8.57;7.77;;;14.20;99.90;;;;;;5045268;28;20207;-89
2022/10/20 03:30:05;;;;;;;9.47;8.73;;;14.20;99.90;;;;;;5027558;28;20182;-87
2022/10/20 03:32:31;;;;;;;9.40;8.70;;;14.30;99.90;;;;;;5044873;28;20209;-88
2022/10/20 03:34:57;;;;;;;10.17;9.17;;;14.30;99.90;;;;;;5046797;28;20181;-90
2022/10/20 03:37:23;;;;;;;9.73;8.77;;;14.40;99.90;;;;;;5054578;28;20207;-88
2022/10/20 03:39:48;;;;;;;9.50;8.70;;;14.30;99.90;;;;;;5045507;28;20184;-88
2022/10/20 03:42:14;;;;;;;8.67;7.87;;;14.40;99.90;;;;;;5044790;28;20233;-87
2022/10/20 03:44:40;;;;;;;9.53;8.57;;;14.40;99.90;;;;;;5046152;28;20189;-87
2022/10/20 03:47:06;;;;;;;9.10;8.30;;;14.40;99.90;;;;;;5043357;28;20185;-86
2022/10/20 03:49:32;;;;;;;9.60;8.70;;;14.50;99.90;;;;;;5026330;28;20218;-89
2022/10/20 03:51:59;;;;;;;8.47;7.87;;;14.50;99.90;;;;;;5043162;28;20185;-88
2022/10/20 03:54:24;;;;;;;9.77;8.87;;;14.50;99.90;;;;;;5044515;28;20208;-88
2022/10/20 03:56:50;;;;;;;9.53;8.60;;;14.50;99.90;;;;;;5044525;28;20186;-88
2022/10/20 03:59:16;;;;;;;10.17;8.43;;;14.50;99.90;;;;;;5043684;28;20197;-88
2022/10/20 04:01:44;;;;;;;10.10;9.13;;;14.40;99.90;;;;;;5048626;28;20463;-89
2022/10/20 04:04:10;;;;;;;10.10;9.10;;;14.40;99.90;;;;;;5064158;28;20274;-89
2022/10/20 04:06:36;;;;;;;10.47;9.47;;;14.10;99.90;;;;;;5045474;28;20181;-88
2022/10/20 04:09:03;;;;;;;17.57;15.77;;;14.10;99.90;;;;;;5044306;28;20291;-90
2022/10/20 04:11:30;;;;;;;11.50;10.40;;;14.00;99.90;;;;;;5044235;28;20246;-87
2022/10/20 04:13:55;;;;;;;10.47;9.43;;;13.90;99.90;;;;;;5043649;28;20208;-89
2022/10/20 04:16:21;;;;;;;10.37;9.47;;;13.90;99.90;;;;;;5044429;28;20200;-89
2022/10/20 04:18:47;;;;;;;10.50;9.60;;;13.90;99.90;;;;;;5043839;28;20184;-88
2022/10/20 04:21:13;;;;;;;9.23;8.43;;;13.90;99.90;;;;;;5044291;28;20185;-88
2022/10/20 04:23:39;;;;;;;9.87;8.93;;;14.00;99.90;;;;;;5044362;28;20855;-88
2022/10/20 04:26:13;;;;;;;15.50;14.00;;;14.00;99.90;;;;;;5025691;28;20195;-90
2022/10/20 04:28:39;;;;;;;183.73;151.07;;;14.10;99.90;;;;;;5046343;28;20172;-91
2022/10/20 04:31:05;;;;;;;94.47;82.43;;;14.10;99.90;;;;;;5049634;28;20195;-89
2022/10/20 04:33:32;;;;;;;13.27;12.07;;;14.10;99.90;;;;;;5044310;28;20213;-89
2022/10/20 04:36:03;;;;;;;47.73;43.23;;;14.20;99.90;;;;;;5043104;28;20236;-89
2022/10/20 04:38:30;;;;;;;18.90;17.00;;;14.10;99.90;;;;;;5043853;28;20169;-89
2022/10/20 04:40:58;;;;;;;14.67;13.37;;;14.20;99.90;;;;;;5044532;28;20177;-90
2022/10/20 04:43:23;;;;;;;19.80;17.93;;;14.20;99.90;;;;;;5044978;28;20716;-89
2022/10/20 04:45:49;;;;;;;12.67;11.43;;;14.30;99.90;;;;;;5043816;28;20274;-90
2022/10/20 04:48:16;;;;;;;14.27;13.07;;;14.20;99.90;;;;;;5043752;28;20197;-88
2022/10/20 04:50:41;;;;;;;13.00;11.70;;;14.20;99.90;;;;;;5041045;28;20215;-89
2022/10/20 04:53:08;;;;;;;13.07;11.97;;;14.20;99.90;;;;;;5044917;28;20207;-88
2022/10/20 04:55:34;;;;;;;14.73;11.13;;;14.20;99.90;;;;;;5041423;28;20185;-88
2022/10/20 04:58:00;;;;;;;11.20;10.00;;;14.20;99.90;;;;;;5047881;28;20224;-89
2022/10/20 05:00:26;;;;;;;10.77;9.77;;;14.20;99.90;;;;;;5050118;28;20186;-88
2022/10/20 05:02:52;;;;;;;13.40;10.53;;;14.20;99.90;;;;;;5052578;28;20208;-88
2022/10/20 05:05:17;;;;;;;11.50;10.43;;;14.20;99.90;;;;;;5046123;28;20192;-87
2022/10/20 05:07:43;;;;;;;11.40;10.10;;;14.20;99.90;;;;;;5046073;28;20205;-87
2022/10/20 05:10:09;;;;;;;14.00;12.60;;;14.20;99.90;;;;;;5045847;28;20657;-88
2022/10/20 05:12:34;;;;;;;11.00;9.93;;;14.20;99.90;;;;;;5044757;28;20208;-88
2022/10/20 05:15:00;;;;;;;10.33;9.40;;;14.10;99.90;;;;;;5034716;28;20256;-88
2022/10/20 05:17:28;;;;;;;11.10;9.90;;;14.10;99.90;;;;;;5045547;28;20185;-88
2022/10/20 05:19:54;;;;;;;11.00;10.10;;;14.10;99.90;;;;;;5044463;28;20185;-89
2022/10/20 05:22:20;;;;;;;11.03;9.97;;;14.10;99.90;;;;;;5049128;28;20238;-87
2022/10/20 05:24:45;;;;;;;10.90;9.80;;;13.90;99.90;;;;;;5030910;28;20555;-87
2022/10/20 05:27:11;;;;;;;11.70;10.60;;;13.90;99.90;;;;;;5046325;28;20199;-88
2022/10/20 05:29:37;;;;;;;9.60;8.80;;;13.90;99.90;;;;;;5046237;28;20717;-88
2022/10/20 05:32:02;;;;;;;11.13;9.50;;;13.90;99.90;;;;;;5046785;28;20215;-88
2022/10/20 05:34:28;;;;;;;10.40;9.47;;;13.80;99.90;;;;;;5043829;28;20213;-88
2022/10/20 05:36:54;;;;;;;11.00;9.90;;;13.70;99.90;;;;;;5049870;28;20199;-87
2022/10/20 05:39:20;;;;;;;10.97;9.60;;;13.70;99.90;;;;;;5048739;28;20193;-90
2022/10/20 05:41:45;;;;;;;11.60;10.60;;;13.60;99.90;;;;;;5049557;28;20204;-88
2022/10/20 05:44:12;;;;;;;11.30;9.33;;;13.50;99.90;;;;;;5043173;28;20782;-88
2022/10/20 05:46:41;;;;;;;14.80;10.20;;;13.60;99.90;;;;;;5054725;28;20191;-89
2022/10/20 05:49:12;;;;;;;11.67;10.50;;;13.60;99.90;;;;;;5042570;28;20196;-88
2022/10/20 05:51:38;;;;;;;11.20;9.70;;;13.70;99.90;;;;;;5051358;28;20192;-89
2022/10/20 05:54:04;;;;;;;10.20;9.23;;;13.60;99.90;;;;;;5043249;28;20230;-89
2022/10/20 05:56:30;;;;;;;11.03;9.90;;;13.40;99.90;;;;;;5049945;28;20185;-88
2022/10/20 05:58:57;;;;;;;10.60;8.97;;;13.50;99.90;;;;;;5052306;28;20196;-89
2022/10/20 06:01:37;;;;;;;9.93;9.03;;;13.50;99.90;;;;;;5049797;28;20235;-89
2022/10/20 06:04:04;;;;;;;10.40;9.50;;;13.60;99.90;;;;;;5047083;28;20213;-87
2022/10/20 06:06:30;;;;;;;10.27;9.37;;;13.80;99.90;;;;;;5042930;28;20197;-89
2022/10/20 06:08:58;;;;;;;12.67;9.03;;;13.80;99.90;;;;;;5040757;28;20195;-89
2022/10/20 06:11:24;;;;;;;11.33;9.77;;;13.80;99.90;;;;;;5042873;28;20185;-88
2022/10/20 06:13:51;;;;;;;10.63;9.60;;;13.80;99.90;;;;;;5042287;28;20234;-89
2022/10/20 06:16:22;;;;;;;12.13;9.33;;;13.80;99.90;;;;;;5045343;28;20209;-89
2022/10/20 06:18:48;;;;;;;10.97;9.43;;;13.50;99.90;;;;;;5041804;28;20305;-89
2022/10/20 06:21:16;;;;;;;10.10;9.10;;;13.40;99.90;;;;;;5059077;22;20225;-87
2022/10/20 06:23:42;;;;;;;10.37;9.20;;;13.40;99.90;;;;;;5039195;28;20188;-87
2022/10/20 06:26:16;;;;;;;13.87;9.83;;;13.40;99.90;;;;;;5039205;28;20193;-87
2022/10/20 06:28:43;;;;;;;10.57;9.50;;;13.40;99.90;;;;;;5038971;28;20190;-87
2022/10/20 06:31:15;;;;;;;10.53;9.53;;;13.40;99.90;;;;;;5040195;28;20242;-89
2022/10/20 06:33:41;;;;;;;9.93;9.00;;;13.50;99.90;;;;;;5038715;28;20214;-87
2022/10/20 06:36:07;;;;;;;12.00;10.77;;;13.60;99.90;;;;;;5032834;28;20185;-87
2022/10/20 06:38:33;;;;;;;10.53;9.63;;;13.80;99.90;;;;;;5040282;28;20172;-86
2022/10/20 06:41:08;;;;;;;14.00;10.33;;;13.80;99.90;;;;;;5037735;28;20212;-87
2022/10/20 06:43:34;;;;;;;10.50;9.60;;;13.80;99.90;;;;;;5039669;28;20196;-87
2022/10/20 06:46:06;;;;;;;10.47;9.43;;;13.90;99.90;;;;;;5040756;28;20189;-87
2022/10/20 06:48:33;;;;;;;11.00;9.93;;;13.90;99.90;;;;;;5048041;28;20150;-88
2022/10/20 06:51:01;;;;;;;11.63;9.80;;;13.90;99.90;;;;;;5059335;28;20198;-88
2022/10/20 06:53:28;;;;;;;14.23;12.93;;;13.80;99.90;;;;;;5047449;28;20312;-87
2022/10/20 06:56:05;;;;;;;10.40;9.40;;;13.80;99.90;;;;;;5039359;28;20191;-87
2022/10/20 06:58:33;;;;;;;9.77;8.87;;;14.00;99.90;;;;;;5039938;28;20254;-87
2022/10/20 07:01:22;;;;;;;11.53;9.67;;;14.00;99.90;;;;;;5039798;28;20201;-87
2022/10/20 07:03:48;;;;;;;11.57;10.57;;;14.10;99.90;;;;;;5038812;28;20189;-87
2022/10/20 07:06:22;;;;;;;11.17;10.07;;;14.10;99.90;;;;;;5038237;28;20187;-87
2022/10/20 07:08:49;;;;;;;10.30;9.40;;;14.20;99.90;;;;;;5072601;28;20176;-88
2022/10/20 07:11:17;;;;;;;12.10;11.00;;;14.30;99.90;;;;;;5058721;28;20219;-88
2022/10/20 07:13:45;;;;;;;11.77;10.67;;;14.30;99.90;;;;;;5058927;28;20209;-88
2022/10/20 07:16:13;;;;;;;10.40;9.43;;;14.30;99.90;;;;;;5039558;28;20188;-87
2022/10/20 07:18:39;;;;;;;10.77;9.83;;;14.30;99.90;;;;;;5040343;28;20193;-88
2022/10/20 07:21:12;;;;;;;12.97;10.20;;;14.30;99.90;;;;;;5038249;28;20244;-88
2022/10/20 07:23:38;;;;;;;11.77;10.03;;;14.40;99.90;;;;;;5038899;28;20177;-87
2022/10/20 07:26:21;;;;;;;12.20;10.90;;;14.40;99.90;;;;;;5039759;28;20179;-87
2022/10/20 07:28:50;;;;;;;12.93;11.23;;;14.40;99.90;;;;;;5038231;28;20201;-88
2022/10/20 07:31:21;;;;;;;12.07;10.83;;;14.40;99.90;;;;;;5033535;28;20267;-87
2022/10/20 07:33:48;;;;;;;11.37;10.33;;;14.30;99.90;;;;;;5037199;28;20217;-87
2022/10/20 07:36:16;;;;;;;10.43;9.33;;;14.20;99.90;;;;;;5038137;28;20189;-87
2022/10/20 07:38:43;;;;;;;14.90;13.60;;;14.30;99.90;;;;;;5038504;28;20184;-87
2022/10/20 07:41:09;;;;;;;14.17;12.80;;;14.30;99.90;;;;;;5037676;28;20208;-87
2022/10/20 07:43:36;;;;;;;13.63;12.23;;;14.10;99.90;;;;;;5038454;28;20181;-87
2022/10/20 07:46:03;;;;;;;13.07;11.77;;;14.00;99.90;;;;;;5037167;28;20551;-88
2022/10/20 07:48:28;;;;;;;12.13;10.93;;;14.10;99.90;;;;;;5037809;28;20746;-87
2022/10/20 07:50:54;;;;;;;10.70;9.80;;;14.00;99.90;;;;;;5052007;28;20192;-87
2022/10/20 07:53:20;;;;;;;10.83;10.03;;;14.10;99.90;;;;;;5040868;28;20664;-87
2022/10/20 07:55:45;;;;;;;11.83;10.63;;;14.20;99.90;;;;;;5034110;28;20193;-87
2022/10/20 07:58:11;;;;;;;13.00;11.80;;;14.40;99.90;;;;;;5032782;28;20197;-87
2022/10/20 08:00:37;;;;;;;13.20;11.93;;;14.40;99.90;;;;;;5032472;28;20208;-87
2022/10/20 08:03:03;;;;;;;11.13;10.20;;;14.40;99.90;;;;;;5032608;28;20335;-88
2022/10/20 08:05:29;;;;;;;12.63;11.20;;;14.30;99.90;;;;;;5033924;28;20651;-87
2022/10/20 08:07:55;;;;;;;12.93;11.53;;;14.40;99.90;;;;;;5033366;28;20954;-87
2022/10/20 08:10:20;;;;;;;13.10;11.80;;;14.50;99.90;;;;;;5033855;28;20227;-87
2022/10/20 08:12:46;;;;;;;12.57;11.43;;;14.40;99.90;;;;;;5033703;28;20295;-88
2022/10/20 08:15:12;;;;;;;13.13;11.40;;;14.50;99.90;;;;;;5030395;28;20212;-87
2022/10/20 08:17:39;;;;;;;12.37;11.20;;;14.50;99.90;;;;;;5033042;28;20622;-88
2022/10/20 08:20:05;;;;;;;13.70;12.17;;;14.50;99.90;;;;;;5035272;28;20287;-88
2022/10/20 08:22:31;;;;;;;12.47;11.17;;;14.60;99.90;;;;;;5037655;28;20213;-87
2022/10/20 08:24:56;;;;;;;18.07;11.93;;;14.60;99.90;;;;;;5037091;28;20231;-88
2022/10/20 08:27:22;;;;;;;14.90;12.27;;;14.70;99.90;;;;;;5034698;28;20195;-88
2022/10/20 08:29:48;;;;;;;12.50;11.30;;;14.70;99.90;;;;;;5034267;28;20213;-88
2022/10/20 08:32:13;;;;;;;12.27;11.17;;;14.80;99.90;;;;;;5035244;28;20257;-88
2022/10/20 08:34:40;;;;;;;12.57;11.40;;;14.90;99.90;;;;;;5034196;28;20216;-87
2022/10/20 08:37:05;;;;;;;13.57;12.13;;;15.10;99.90;;;;;;5034197;28;20193;-88
2022/10/20 08:39:31;;;;;;;13.60;11.87;;;15.00;99.90;;;;;;5033144;28;20280;-88
2022/10/20 08:41:58;;;;;;;12.77;11.53;;;14.90;99.90;;;;;;5040530;28;20219;-88
2022/10/20 08:44:28;;;;;;;13.70;12.00;;;14.80;99.90;;;;;;5040790;28;20275;-87
2022/10/20 08:46:54;;;;;;;13.37;11.93;;;14.90;99.90;;;;;;5036970;28;20284;-89
2022/10/20 08:49:26;;;;;;;13.37;12.13;;;14.90;99.90;;;;;;5036504;28;20227;-87
2022/10/20 08:51:51;;;;;;;12.03;11.00;;;14.90;99.90;;;;;;5036959;28;20250;-87
2022/10/20 08:54:18;;;;;;;14.00;11.47;;;14.90;99.90;;;;;;5035758;28;20259;-86
2022/10/20 08:56:44;;;;;;;12.57;11.37;;;14.80;99.90;;;;;;5035110;28;20181;-85
2022/10/20 08:59:34;;;;;;;13.20;12.00;;;14.80;99.90;;;;;;5038282;28;20200;-87
2022/10/20 09:02:02;;;;;;;13.23;11.97;;;14.90;99.90;;;;;;5037996;28;20189;-86
2022/10/20 09:04:40;;;;;;;13.10;11.80;;;15.00;99.90;;;;;;5039001;28;20246;-86
2022/10/20 09:07:27;;;;;;;12.10;11.00;;;15.10;99.90;;;;;;5035998;28;20192;-89
2022/10/20 09:10:02;;;;;;;13.33;11.97;;;15.00;99.90;;;;;;5018771;28;20198;-86
2022/10/20 09:12:28;;;;;;;12.27;10.97;;;15.10;99.90;;;;;;5037062;28;20270;-86
2022/10/20 09:14:56;;;;;;;19.27;11.83;;;15.00;99.90;;;;;;5037538;28;20232;-88
2022/10/20 09:17:22;;;;;;;18.73;12.53;;;15.00;99.90;;;;;;5019604;28;20227;-87
2022/10/20 09:19:54;;;;;;;12.23;10.93;;;15.20;99.90;;;;;;5037407;28;20220;-87
2022/10/20 09:22:23;;;;;;;12.53;11.23;;;15.40;99.90;;;;;;5033725;28;20193;-86
2022/10/20 09:24:50;;;;;;;13.23;11.83;;;15.50;99.90;;;;;;5034009;28;20204;-87
2022/10/20 09:27:30;;;;;;;12.93;11.73;;;15.50;99.90;;;;;;5037124;28;20230;-86
2022/10/20 09:29:56;;;;;;;13.27;11.87;;;15.20;99.90;;;;;;5037532;28;20968;-87
2022/10/20 09:32:35;;;;;;;12.93;11.63;;;15.30;99.90;;;;;;5033789;28;20212;-87
2022/10/20 09:35:31;;;;;;;13.70;12.30;;;15.20;99.90;;;;;;5047611;28;20230;-87
2022/10/20 09:38:23;;;;;;;11.90;10.60;;;15.30;99.90;;;;;;5051515;28;20230;-86
2022/10/20 09:41:19;;;;;;;12.80;11.70;;;15.60;99.90;;;;;;5038749;28;20214;-86
2022/10/20 09:44:13;;;;;;;12.73;11.47;;;15.60;99.90;;;;;;5036648;28;20193;-87
2022/10/20 09:46:44;;;;;;;14.07;12.70;;;15.70;99.90;;;;;;5031011;28;20210;-87
2022/10/20 09:49:27;;;;;;;13.60;11.97;;;15.60;99.90;;;;;;5023377;28;20446;-87
2022/10/20 09:51:53;;;;;;;13.13;11.93;;;15.50;99.90;;;;;;5032257;28;20189;-87
2022/10/20 09:54:21;;;;;;;13.37;12.17;;;15.50;99.90;;;;;;5033797;28;20221;-87
2022/10/20 09:56:48;;;;;;;16.70;12.77;;;15.70;99.90;;;;;;5033605;28;20192;-87
2022/10/20 09:59:26;;;;;;;12.93;11.73;;;15.40;99.90;;;;;;5038646;28;20191;-86
2022/10/20 10:02:00;;;;;;;13.60;12.30;;;15.50;99.90;;;;;;5036304;28;20682;-87
2022/10/20 10:04:37;;;;;;;12.30;11.20;;;15.70;99.90;;;;;;5038301;28;20280;-86
2022/10/20 10:07:04;;;;;;;13.57;12.23;;;15.80;99.90;;;;;;5038231;28;20196;-87
2022/10/20 10:09:33;;;;;;;12.23;11.13;;;15.90;99.90;;;;;;5037333;28;20198;-86
2022/10/20 10:12:15;;;;;;;13.53;12.13;;;15.80;99.90;;;;;;5037867;28;20232;-87
2022/10/20 10:15:05;;;;;;;13.20;11.95;;;15.90;99.90;;;;;;5023393;28;20218;-87
2022/10/20 10:17:42;;;;;;;13.33;12.13;;;15.80;99.90;;;;;;5034214;28;20190;-86
2022/10/20 10:20:11;;;;;;;13.15;11.85;;;15.70;99.90;;;;;;5038228;28;20250;-87
2022/10/20 10:22:38;;;;;;;13.77;12.23;;;15.50;99.90;;;;;;5038328;28;20192;-86
2022/10/20 10:25:05;;;;;;;13.50;12.17;;;15.50;99.90;;;;;;5037240;28;20242;-87
2022/10/20 10:27:35;;;;;;;13.77;12.47;;;15.40;99.90;;;;;;5037708;28;20287;-87
2022/10/20 10:30:31;;;;;;;13.50;12.20;;;15.40;99.90;;;;;;5051810;28;20237;-86
2022/10/20 10:32:57;;;;;;;13.90;12.43;;;15.30;99.90;;;;;;5056208;28;20191;-87
2022/10/20 10:35:41;;;;;;;15.40;12.43;;;15.50;99.90;;;;;;5051007;28;20185;-86
2022/10/20 10:38:11;;;;;;;14.03;12.70;;;15.40;99.90;;;;;;5037277;28;20189;-87
2022/10/20 10:41:07;;;;;;;14.47;12.97;;;15.30;99.90;;;;;;5039517;28;20541;-87
2022/10/20 10:43:54;;;;;;;15.53;13.07;;;15.00;99.90;;;;;;5038230;28;20197;-87
2022/10/20 10:46:32;;;;;;;12.57;11.43;;;15.10;99.90;;;;;;5037465;28;20188;-87
2022/10/20 10:49:17;;;;;;;13.20;11.63;;;15.10;99.90;;;;;;5037911;28;20204;-87
2022/10/20 10:51:49;;;;;;;12.93;11.63;;;15.30;99.90;;;;;;5046983;28;20253;-86
2022/10/20 10:54:37;;;;;;;12.13;11.03;;;15.50;99.90;;;;;;5055488;28;20209;-86
2022/10/20 10:57:24;;;;;;;12.90;11.60;;;15.70;99.90;;;;;;5059115;28;20170;-86
2022/10/20 10:59:52;;;;;;;12.90;11.60;;;15.80;99.90;;;;;;5032700;28;20214;-87
2022/10/20 11:02:45;;;;;;;13.17;11.97;;;15.90;99.90;;;;;;5036036;28;20199;-87
2022/10/20 11:05:39;;;;;;;12.47;10.77;;;15.60;99.90;;;;;;5036434;28;20252;-87
2022/10/20 11:08:04;;;;;;;11.37;10.47;;;15.70;99.90;;;;;;5026945;28;20236;-87
2022/10/20 11:10:49;;;;;;;13.03;11.80;;;15.70;99.90;;;;;;5039010;28;20709;-86
2022/10/20 11:13:29;;;;;;;12.27;11.17;;;15.90;99.90;;;;;;5037917;28;20226;-86
2022/10/20 11:16:01;;;;;;;12.93;11.05;;;15.90;99.90;;;;;;5037514;28;20275;-84
2022/10/20 11:19:06;;;;;;;13.60;12.18;;;16.00;99.90;;;;;;5038329;28;20207;-88
2022/10/20 11:22:02;;;;;;;12.50;11.30;;;16.00;99.90;;;;;;5038028;28;20310;-88
2022/10/20 11:24:54;;;;;;;13.57;12.05;;;16.10;99.90;;;;;;5037393;28;20836;-88
2022/10/20 11:27:34;;;;;;;13.30;12.07;;;16.00;99.90;;;;;;5037226;28;20195;-88
2022/10/20 11:30:20;;;;;;;14.52;13.13;;;15.80;99.90;;;;;;5026662;28;20214;-88
2022/10/20 11:33:13;;;;;;;14.17;12.77;;;15.80;99.90;;;;;;5046962;28;20275;-88
2022/10/20 11:35:47;;;;;;;13.67;12.37;;;15.60;99.90;;;;;;5041657;28;20190;-89
2022/10/20 11:38:31;;;;;;;12.73;11.43;;;15.60;99.90;;;;;;5037465;28;20276;-88
2022/10/20 11:41:05;;;;;;;12.48;11.23;;;16.00;99.90;;;;;;5036953;28;20220;-88
2022/10/20 11:43:46;;;;;;;12.55;11.25;;;16.10;99.90;;;;;;5037349;28;20189;-87
2022/10/20 11:46:18;;;;;;;12.75;11.45;;;16.00;99.90;;;;;;5038076;28;20198;-88
2022/10/20 11:48:53;;;;;;;12.75;11.65;;;15.90;99.90;;;;;;5038013;28;20208;-88
2022/10/20 11:51:28;;;;;;;12.10;11.02;;;15.90;99.90;;;;;;5032844;28;20306;-88
2022/10/20 11:54:13;;;;;;;12.82;11.52;;;16.10;99.90;;;;;;5037656;28;20229;-88
2022/10/20 11:56:59;;;;;;;12.30;11.10;;;16.20;99.90;;;;;;5051263;28;20190;-88
2022/10/20 11:59:49;;;;;;;16.92;12.40;;;16.10;99.90;;;;;;5042223;28;20179;-88
2022/10/20 12:02:18;;;;;;;13.30;12.15;;;16.00;99.90;;;;;;5038355;28;20193;-88
2022/10/20 12:05:17;;;;;;;11.45;10.35;;;15.80;99.90;;;;;;5036186;28;20261;-89
2022/10/20 12:07:54;;;;;;;13.60;10.57;;;15.90;99.90;;;;;;5033345;28;20191;-87
2022/10/20 12:10:39;;;;;;;11.18;10.10;;;16.10;99.90;;;;;;5024393;28;20208;-87
2022/10/20 12:13:22;;;;;;;10.85;9.93;;;16.10;99.90;;;;;;5038225;28;20249;-87
2022/10/20 12:15:50;;;;;;;11.18;10.20;;;16.30;99.90;;;;;;5038631;28;20290;-87
2022/10/20 12:18:29;;;;;;;11.02;9.93;;;16.40;99.90;;;;;;5042898;28;20184;-86
2022/10/20 12:21:00;;;;;;;11.18;10.02;;;16.50;99.90;;;;;;5055220;28;20223;-86
2022/10/20 12:23:44;;;;;;;11.18;10.20;;;16.60;99.90;;;;;;5053691;28;20239;-87
2022/10/20 12:26:28;;;;;;;11.60;10.57;;;16.60;99.90;;;;;;5031720;28;20240;-86
2022/10/20 12:28:58;;;;;;;11.55;10.45;;;16.60;99.90;;;;;;5036894;28;20237;-87
2022/10/20 12:31:27;;;;;;;11.63;10.63;;;16.60;99.90;;;;;;5038345;28;20658;-87
2022/10/20 12:33:52;;;;;;;11.60;9.70;;;16.60;99.90;;;;;;5037642;28;20292;-87
2022/10/20 12:36:18;;;;;;;12.35;11.10;;;16.70;99.90;;;;;;5038286;28;20192;-87
2022/10/20 12:39:11;;;;;;;11.45;10.48;;;16.70;99.90;;;;;;5037807;28;20192;-87
2022/10/20 12:42:00;;;;;;;10.55;9.65;;;16.70;99.90;;;;;;5037706;28;20303;-87
2022/10/20 12:44:30;;;;;;;11.93;10.50;;;16.70;99.90;;;;;;5036574;28;20664;-87
2022/10/20 12:47:05;;;;;;;11.32;10.30;;;16.70;99.90;;;;;;5043445;28;20811;-87
2022/10/20 12:49:34;;;;;;;11.13;10.13;;;16.70;99.90;;;;;;5031053;28;20191;-87
2022/10/20 12:52:01;;;;;;;10.55;9.65;;;16.70;99.90;;;;;;5038807;28;20234;-85